sensor_id;sensor_type;location;lat;lon;timestamp;P1;durP1;ratioP1;P2;durP2;ratioP2
79143;SDS011;68551;47.484;19.092;2023-05-10T00:00:09;4.03;;;2.30;;
79143;SDS011;68551;47.484;19.092;2023-05-10T00:03:17;3.65;;;2.10;;
79143;SDS011;68551;47.484;19.092;2023-05-10T00:06:20;3.08;;;2.17;;
79143;SDS011;68551;47.484;19.092;2023-05-10T00:09:22;3.55;;;2.20;;
79143;SDS011;68551;47.484;19.092;2023-05-10T00:12:24;4.43;;;2.38;;
79143;SDS011;68551;47.484;19.092;2023-05-10T00:15:29;2.97;;;2.22;;
79143;SDS011;68551;47.484;19.092;2023-05-10T00:18:34;3.22;;;2.10;;
79143;SDS011;68551;47.484;19.092;2023-05-10T00:21:37;3.38;;;2.20;;
79143;SDS011;68551;47.484;19.092;2023-05-10T00:24:39;3.60;;;2.35;;
79143;SDS011;68551;47.484;19.092;2023-05-10T00:27:43;3.28;;;2.28;;
79143;SDS011;68551;47.484;19.092;2023-05-10T00:30:46;2.30;;;2.03;;
79143;SDS011;68551;47.484;19.092;2023-05-10T00:33:51;3.03;;;2.10;;
79143;SDS011;68551;47.484;19.092;2023-05-10T00:36:58;3.30;;;2.38;;
79143;SDS011;68551;47.484;19.092;2023-05-10T00:40:08;3.83;;;2.35;;
79143;SDS011;68551;47.484;19.092;2023-05-10T00:43:15;2.70;;;2.25;;
79143;SDS011;68551;47.484;19.092;2023-05-10T00:46:17;6.00;;;2.53;;
79143;SDS011;68551;47.484;19.092;2023-05-10T00:49:20;3.38;;;2.42;;
79143;SDS011;68551;47.484;19.092;2023-05-10T00:52:29;4.57;;;1.73;;
79143;SDS011;68551;47.484;19.092;2023-05-10T00:55:35;5.10;;;2.72;;
79143;SDS011;68551;47.484;19.092;2023-05-10T00:58:40;4.72;;;2.63;;
79143;SDS011;68551;47.484;19.092;2023-05-10T01:01:49;3.80;;;2.60;;
79143;SDS011;68551;47.484;19.092;2023-05-10T01:04:51;4.38;;;3.20;;
79143;SDS011;68551;47.484;19.092;2023-05-10T01:07:54;3.00;;;2.35;;
79143;SDS011;68551;47.484;19.092;2023-05-10T01:10:59;3.75;;;2.45;;
79143;SDS011;68551;47.484;19.092;2023-05-10T01:14:02;3.17;;;2.35;;
79143;SDS011;68551;47.484;19.092;2023-05-10T01:17:05;4.10;;;2.58;;
79143;SDS011;68551;47.484;19.092;2023-05-10T01:20:09;4.30;;;2.80;;
79143;SDS011;68551;47.484;19.092;2023-05-10T01:23:28;4.07;;;2.55;;
79143;SDS011;68551;47.484;19.092;2023-05-10T01:33:21;4.13;;;2.78;;
79143;SDS011;68551;47.484;19.092;2023-05-10T01:42:45;5.22;;;2.80;;
79143;SDS011;68551;47.484;19.092;2023-05-10T01:45:57;3.25;;;2.72;;
79143;SDS011;68551;47.484;19.092;2023-05-10T01:49:02;5.40;;;2.92;;
79143;SDS011;68551;47.484;19.092;2023-05-10T01:52:12;3.17;;;2.50;;
79143;SDS011;68551;47.484;19.092;2023-05-10T01:55:18;3.60;;;2.58;;
79143;SDS011;68551;47.484;19.092;2023-05-10T01:58:27;3.72;;;2.47;;
79143;SDS011;68551;47.484;19.092;2023-05-10T02:01:32;3.47;;;2.65;;
79143;SDS011;68551;47.484;19.092;2023-05-10T02:04:35;3.63;;;2.58;;
79143;SDS011;68551;47.484;19.092;2023-05-10T02:07:40;3.97;;;2.80;;
79143;SDS011;68551;47.484;19.092;2023-05-10T02:10:46;4.05;;;2.42;;
79143;SDS011;68551;47.484;19.092;2023-05-10T02:13:51;4.90;;;2.97;;
79143;SDS011;68551;47.484;19.092;2023-05-10T02:16:59;3.70;;;2.67;;
79143;SDS011;68551;47.484;19.092;2023-05-10T02:20:06;4.47;;;2.60;;
79143;SDS011;68551;47.484;19.092;2023-05-10T02:23:09;3.92;;;2.80;;
79143;SDS011;68551;47.484;19.092;2023-05-10T02:29:20;2.80;;;2.35;;
79143;SDS011;68551;47.484;19.092;2023-05-10T02:32:26;3.08;;;2.35;;
79143;SDS011;68551;47.484;19.092;2023-05-10T02:35:31;4.80;;;2.92;;
79143;SDS011;68551;47.484;19.092;2023-05-10T02:38:36;4.13;;;2.88;;
79143;SDS011;68551;47.484;19.092;2023-05-10T02:41:48;2.97;;;2.22;;
79143;SDS011;68551;47.484;19.092;2023-05-10T02:44:55;4.85;;;2.15;;
79143;SDS011;68551;47.484;19.092;2023-05-10T02:48:03;3.65;;;2.53;;
79143;SDS011;68551;47.484;19.092;2023-05-10T02:51:07;3.65;;;1.98;;
79143;SDS011;68551;47.484;19.092;2023-05-10T02:54:15;3.45;;;2.60;;
79143;SDS011;68551;47.484;19.092;2023-05-10T02:57:24;3.67;;;2.60;;
79143;SDS011;68551;47.484;19.092;2023-05-10T03:00:29;3.60;;;2.55;;
79143;SDS011;68551;47.484;19.092;2023-05-10T03:03:32;3.83;;;2.60;;
79143;SDS011;68551;47.484;19.092;2023-05-10T03:06:35;3.47;;;2.30;;
79143;SDS011;68551;47.484;19.092;2023-05-10T03:09:38;5.75;;;2.88;;
79143;SDS011;68551;47.484;19.092;2023-05-10T03:16:21;3.72;;;2.78;;
79143;SDS011;68551;47.484;19.092;2023-05-10T03:22:55;2.97;;;2.08;;
79143;SDS011;68551;47.484;19.092;2023-05-10T03:26:03;5.53;;;2.65;;
79143;SDS011;68551;47.484;19.092;2023-05-10T03:29:07;4.05;;;2.60;;
79143;SDS011;68551;47.484;19.092;2023-05-10T03:32:10;3.75;;;2.67;;
79143;SDS011;68551;47.484;19.092;2023-05-10T03:35:13;3.53;;;3.00;;
79143;SDS011;68551;47.484;19.092;2023-05-10T03:38:17;4.72;;;2.70;;
79143;SDS011;68551;47.484;19.092;2023-05-10T03:41:20;3.47;;;2.58;;
79143;SDS011;68551;47.484;19.092;2023-05-10T03:44:23;6.05;;;3.13;;
79143;SDS011;68551;47.484;19.092;2023-05-10T03:47:27;5.63;;;2.85;;
79143;SDS011;68551;47.484;19.092;2023-05-10T03:50:34;4.25;;;3.10;;
79143;SDS011;68551;47.484;19.092;2023-05-10T03:53:39;3.40;;;2.60;;
79143;SDS011;68551;47.484;19.092;2023-05-10T03:56:44;4.13;;;2.78;;
79143;SDS011;68551;47.484;19.092;2023-05-10T03:59:49;3.90;;;2.88;;
79143;SDS011;68551;47.484;19.092;2023-05-10T04:02:52;3.88;;;2.78;;
79143;SDS011;68551;47.484;19.092;2023-05-10T04:05:58;4.55;;;3.13;;
79143;SDS011;68551;47.484;19.092;2023-05-10T04:09:04;4.60;;;3.00;;
79143;SDS011;68551;47.484;19.092;2023-05-10T04:12:06;4.75;;;3.10;;
79143;SDS011;68551;47.484;19.092;2023-05-10T04:15:11;4.70;;;2.90;;
79143;SDS011;68551;47.484;19.092;2023-05-10T04:18:14;3.53;;;2.40;;
79143;SDS011;68551;47.484;19.092;2023-05-10T04:21:16;3.67;;;2.97;;
79143;SDS011;68551;47.484;19.092;2023-05-10T04:24:18;4.38;;;2.80;;
79143;SDS011;68551;47.484;19.092;2023-05-10T04:27:21;4.10;;;2.85;;
79143;SDS011;68551;47.484;19.092;2023-05-10T04:30:24;3.55;;;3.05;;
79143;SDS011;68551;47.484;19.092;2023-05-10T04:33:26;6.55;;;3.17;;
79143;SDS011;68551;47.484;19.092;2023-05-10T04:36:31;4.47;;;3.35;;
79143;SDS011;68551;47.484;19.092;2023-05-10T04:39:37;7.07;;;3.08;;
79143;SDS011;68551;47.484;19.092;2023-05-10T04:42:43;3.70;;;2.90;;
79143;SDS011;68551;47.484;19.092;2023-05-10T04:45:46;4.22;;;3.13;;
79143;SDS011;68551;47.484;19.092;2023-05-10T04:48:52;3.85;;;3.13;;
79143;SDS011;68551;47.484;19.092;2023-05-10T04:51:54;5.65;;;3.30;;
79143;SDS011;68551;47.484;19.092;2023-05-10T04:54:57;5.22;;;3.10;;
79143;SDS011;68551;47.484;19.092;2023-05-10T04:58:04;4.10;;;2.90;;
79143;SDS011;68551;47.484;19.092;2023-05-10T05:01:07;4.15;;;3.20;;
79143;SDS011;68551;47.484;19.092;2023-05-10T05:04:10;4.13;;;3.25;;
79143;SDS011;68551;47.484;19.092;2023-05-10T05:07:12;4.00;;;2.83;;
79143;SDS011;68551;47.484;19.092;2023-05-10T05:10:19;3.67;;;2.88;;
79143;SDS011;68551;47.484;19.092;2023-05-10T05:13:21;3.67;;;3.25;;
79143;SDS011;68551;47.484;19.092;2023-05-10T05:16:30;4.10;;;3.30;;
79143;SDS011;68551;47.484;19.092;2023-05-10T05:19:32;4.13;;;3.13;;
79143;SDS011;68551;47.484;19.092;2023-05-10T05:22:35;4.70;;;3.63;;
79143;SDS011;68551;47.484;19.092;2023-05-10T05:25:39;4.10;;;3.17;;
79143;SDS011;68551;47.484;19.092;2023-05-10T05:28:41;4.18;;;3.17;;
79143;SDS011;68551;47.484;19.092;2023-05-10T05:31:46;5.72;;;3.47;;
79143;SDS011;68551;47.484;19.092;2023-05-10T05:34:48;3.80;;;2.65;;
79143;SDS011;68551;47.484;19.092;2023-05-10T05:37:54;5.68;;;3.60;;
79143;SDS011;68551;47.484;19.092;2023-05-10T05:40:56;5.47;;;3.20;;
79143;SDS011;68551;47.484;19.092;2023-05-10T05:43:58;4.45;;;3.38;;
79143;SDS011;68551;47.484;19.092;2023-05-10T05:47:03;3.75;;;3.13;;
79143;SDS011;68551;47.484;19.092;2023-05-10T05:50:06;4.40;;;3.40;;
79143;SDS011;68551;47.484;19.092;2023-05-10T05:53:08;4.95;;;3.30;;
79143;SDS011;68551;47.484;19.092;2023-05-10T05:56:11;4.03;;;2.92;;
79143;SDS011;68551;47.484;19.092;2023-05-10T05:59:16;4.07;;;2.70;;
79143;SDS011;68551;47.484;19.092;2023-05-10T06:02:20;6.10;;;3.50;;
79143;SDS011;68551;47.484;19.092;2023-05-10T06:05:23;4.10;;;3.10;;
79143;SDS011;68551;47.484;19.092;2023-05-10T06:08:30;5.35;;;3.30;;
79143;SDS011;68551;47.484;19.092;2023-05-10T06:11:32;6.88;;;3.10;;
79143;SDS011;68551;47.484;19.092;2023-05-10T06:14:39;5.35;;;3.35;;
79143;SDS011;68551;47.484;19.092;2023-05-10T06:17:43;6.95;;;3.17;;
79143;SDS011;68551;47.484;19.092;2023-05-10T06:20:51;4.30;;;3.47;;
79143;SDS011;68551;47.484;19.092;2023-05-10T06:23:56;4.45;;;3.60;;
79143;SDS011;68551;47.484;19.092;2023-05-10T06:26:58;4.97;;;3.20;;
79143;SDS011;68551;47.484;19.092;2023-05-10T06:30:02;5.03;;;3.58;;
79143;SDS011;68551;47.484;19.092;2023-05-10T06:33:16;4.07;;;3.05;;
79143;SDS011;68551;47.484;19.092;2023-05-10T06:36:18;8.48;;;4.20;;
79143;SDS011;68551;47.484;19.092;2023-05-10T06:39:21;4.57;;;3.45;;
79143;SDS011;68551;47.484;19.092;2023-05-10T06:42:23;5.78;;;3.63;;
79143;SDS011;68551;47.484;19.092;2023-05-10T06:45:29;5.18;;;3.58;;
79143;SDS011;68551;47.484;19.092;2023-05-10T06:48:31;6.57;;;4.15;;
79143;SDS011;68551;47.484;19.092;2023-05-10T06:51:36;5.85;;;3.45;;
79143;SDS011;68551;47.484;19.092;2023-05-10T06:54:39;4.70;;;3.42;;
79143;SDS011;68551;47.484;19.092;2023-05-10T06:57:41;4.90;;;3.58;;
79143;SDS011;68551;47.484;19.092;2023-05-10T07:00:43;4.05;;;3.40;;
79143;SDS011;68551;47.484;19.092;2023-05-10T07:03:51;3.88;;;3.00;;
79143;SDS011;68551;47.484;19.092;2023-05-10T07:06:55;5.30;;;3.58;;
79143;SDS011;68551;47.484;19.092;2023-05-10T07:09:59;5.63;;;4.00;;
79143;SDS011;68551;47.484;19.092;2023-05-10T07:13:04;3.90;;;3.45;;
79143;SDS011;68551;47.484;19.092;2023-05-10T07:16:11;6.07;;;3.45;;
79143;SDS011;68551;47.484;19.092;2023-05-10T07:19:14;4.82;;;3.65;;
79143;SDS011;68551;47.484;19.092;2023-05-10T07:22:16;4.68;;;3.53;;
79143;SDS011;68551;47.484;19.092;2023-05-10T07:25:19;4.38;;;3.30;;
79143;SDS011;68551;47.484;19.092;2023-05-10T07:28:26;5.05;;;3.45;;
79143;SDS011;68551;47.484;19.092;2023-05-10T07:31:30;6.65;;;3.33;;
79143;SDS011;68551;47.484;19.092;2023-05-10T07:34:33;5.25;;;3.42;;
79143;SDS011;68551;47.484;19.092;2023-05-10T07:37:38;3.58;;;2.85;;
79143;SDS011;68551;47.484;19.092;2023-05-10T07:40:43;3.70;;;3.20;;
79143;SDS011;68551;47.484;19.092;2023-05-10T07:43:48;4.60;;;3.10;;
79143;SDS011;68551;47.484;19.092;2023-05-10T07:46:58;4.60;;;3.42;;
79143;SDS011;68551;47.484;19.092;2023-05-10T07:50:02;3.20;;;2.53;;
79143;SDS011;68551;47.484;19.092;2023-05-10T07:53:08;4.07;;;2.90;;
79143;SDS011;68551;47.484;19.092;2023-05-10T07:56:19;3.65;;;3.10;;
79143;SDS011;68551;47.484;19.092;2023-05-10T07:59:31;3.22;;;2.53;;
79143;SDS011;68551;47.484;19.092;2023-05-10T08:02:37;5.40;;;3.15;;
79143;SDS011;68551;47.484;19.092;2023-05-10T08:05:39;3.55;;;3.13;;
79143;SDS011;68551;47.484;19.092;2023-05-10T08:08:42;4.10;;;3.28;;
79143;SDS011;68551;47.484;19.092;2023-05-10T08:11:47;3.20;;;2.70;;
79143;SDS011;68551;47.484;19.092;2023-05-10T08:14:49;3.92;;;3.08;;
79143;SDS011;68551;47.484;19.092;2023-05-10T08:17:52;3.72;;;2.80;;
79143;SDS011;68551;47.484;19.092;2023-05-10T08:20:54;4.13;;;2.75;;
79143;SDS011;68551;47.484;19.092;2023-05-10T08:23:59;4.95;;;3.10;;
79143;SDS011;68551;47.484;19.092;2023-05-10T08:27:01;4.90;;;2.95;;
79143;SDS011;68551;47.484;19.092;2023-05-10T08:30:04;4.85;;;3.60;;
79143;SDS011;68551;47.484;19.092;2023-05-10T08:33:07;3.67;;;2.47;;
79143;SDS011;68551;47.484;19.092;2023-05-10T08:36:11;4.13;;;3.00;;
79143;SDS011;68551;47.484;19.092;2023-05-10T08:39:17;3.60;;;2.45;;
79143;SDS011;68551;47.484;19.092;2023-05-10T08:42:31;2.83;;;2.53;;
79143;SDS011;68551;47.484;19.092;2023-05-10T08:45:41;4.18;;;2.92;;
79143;SDS011;68551;47.484;19.092;2023-05-10T08:48:47;4.35;;;2.55;;
79143;SDS011;68551;47.484;19.092;2023-05-10T08:51:54;3.75;;;2.88;;
79143;SDS011;68551;47.484;19.092;2023-05-10T08:54:57;2.97;;;2.67;;
79143;SDS011;68551;47.484;19.092;2023-05-10T08:58:05;5.13;;;2.97;;
79143;SDS011;68551;47.484;19.092;2023-05-10T09:01:10;3.38;;;2.83;;
79143;SDS011;68551;47.484;19.092;2023-05-10T09:04:14;3.50;;;2.70;;
79143;SDS011;68551;47.484;19.092;2023-05-10T09:10:21;3.40;;;2.92;;
79143;SDS011;68551;47.484;19.092;2023-05-10T09:13:27;3.47;;;2.88;;
79143;SDS011;68551;47.484;19.092;2023-05-10T09:16:30;3.85;;;2.95;;
79143;SDS011;68551;47.484;19.092;2023-05-10T09:19:35;4.68;;;3.10;;
79143;SDS011;68551;47.484;19.092;2023-05-10T09:22:39;4.55;;;3.25;;
79143;SDS011;68551;47.484;19.092;2023-05-10T09:25:42;3.38;;;2.80;;
79143;SDS011;68551;47.484;19.092;2023-05-10T09:28:54;4.13;;;2.67;;
79143;SDS011;68551;47.484;19.092;2023-05-10T09:32:03;3.33;;;2.88;;
79143;SDS011;68551;47.484;19.092;2023-05-10T09:35:13;4.82;;;2.90;;
79143;SDS011;68551;47.484;19.092;2023-05-10T09:38:17;4.57;;;3.17;;
79143;SDS011;68551;47.484;19.092;2023-05-10T09:41:22;3.63;;;2.83;;
79143;SDS011;68551;47.484;19.092;2023-05-10T09:44:25;3.13;;;2.65;;
79143;SDS011;68551;47.484;19.092;2023-05-10T09:47:34;5.13;;;2.75;;
79143;SDS011;68551;47.484;19.092;2023-05-10T09:50:39;3.63;;;3.05;;
79143;SDS011;68551;47.484;19.092;2023-05-10T09:53:42;3.80;;;2.63;;
79143;SDS011;68551;47.484;19.092;2023-05-10T09:56:45;4.30;;;3.42;;
79143;SDS011;68551;47.484;19.092;2023-05-10T09:59:51;3.53;;;3.08;;
79143;SDS011;68551;47.484;19.092;2023-05-10T10:02:56;3.95;;;2.80;;
79143;SDS011;68551;47.484;19.092;2023-05-10T10:06:00;2.90;;;2.35;;
79143;SDS011;68551;47.484;19.092;2023-05-10T10:09:02;3.75;;;2.95;;
79143;SDS011;68551;47.484;19.092;2023-05-10T10:12:07;3.78;;;2.90;;
79143;SDS011;68551;47.484;19.092;2023-05-10T10:15:12;3.80;;;2.78;;
79143;SDS011;68551;47.484;19.092;2023-05-10T10:18:17;3.38;;;2.33;;
79143;SDS011;68551;47.484;19.092;2023-05-10T10:21:29;3.60;;;2.42;;
79143;SDS011;68551;47.484;19.092;2023-05-10T10:24:31;3.25;;;2.72;;
79143;SDS011;68551;47.484;19.092;2023-05-10T10:30:48;4.13;;;2.47;;
79143;SDS011;68551;47.484;19.092;2023-05-10T10:34:00;4.47;;;2.78;;
79143;SDS011;68551;47.484;19.092;2023-05-10T10:37:09;3.05;;;2.55;;
79143;SDS011;68551;47.484;19.092;2023-05-10T10:40:25;3.15;;;2.10;;
79143;SDS011;68551;47.484;19.092;2023-05-10T10:43:31;2.30;;;1.90;;
79143;SDS011;68551;47.484;19.092;2023-05-10T10:46:33;5.25;;;2.08;;
79143;SDS011;68551;47.484;19.092;2023-05-10T10:50:23;2.60;;;2.25;;
79143;SDS011;68551;47.484;19.092;2023-05-10T10:53:10;4.82;;;2.35;;
79143;SDS011;68551;47.484;19.092;2023-05-10T10:56:16;3.50;;;2.00;;
79143;SDS011;68551;47.484;19.092;2023-05-10T10:59:27;2.78;;;2.05;;
79143;SDS011;68551;47.484;19.092;2023-05-10T11:05:53;2.38;;;2.10;;
79143;SDS011;68551;47.484;19.092;2023-05-10T11:09:07;2.30;;;1.90;;
79143;SDS011;68551;47.484;19.092;2023-05-10T11:12:10;3.20;;;2.05;;
79143;SDS011;68551;47.484;19.092;2023-05-10T11:15:13;2.83;;;2.03;;
79143;SDS011;68551;47.484;19.092;2023-05-10T11:18:16;3.80;;;2.30;;
79143;SDS011;68551;47.484;19.092;2023-05-10T11:21:21;4.80;;;2.55;;
79143;SDS011;68551;47.484;19.092;2023-05-10T11:24:27;2.60;;;2.05;;
79143;SDS011;68551;47.484;19.092;2023-05-10T11:27:34;2.95;;;1.80;;
79143;SDS011;68551;47.484;19.092;2023-05-10T11:30:44;3.55;;;2.10;;
79143;SDS011;68551;47.484;19.092;2023-05-10T11:33:52;2.53;;;1.83;;
79143;SDS011;68551;47.484;19.092;2023-05-10T11:36:56;4.38;;;2.20;;
79143;SDS011;68551;47.484;19.092;2023-05-10T11:39:59;2.60;;;1.92;;
79143;SDS011;68551;47.484;19.092;2023-05-10T11:43:02;2.88;;;2.20;;
79143;SDS011;68551;47.484;19.092;2023-05-10T11:46:09;3.10;;;2.13;;
79143;SDS011;68551;47.484;19.092;2023-05-10T11:49:16;4.68;;;2.00;;
79143;SDS011;68551;47.484;19.092;2023-05-10T11:52:19;3.10;;;2.30;;
79143;SDS011;68551;47.484;19.092;2023-05-10T11:55:24;2.45;;;2.03;;
79143;SDS011;68551;47.484;19.092;2023-05-10T11:58:26;2.75;;;2.00;;
79143;SDS011;68551;47.484;19.092;2023-05-10T12:01:31;2.92;;;2.10;;
79143;SDS011;68551;47.484;19.092;2023-05-10T12:04:37;3.08;;;1.92;;
79143;SDS011;68551;47.484;19.092;2023-05-10T12:07:40;2.67;;;2.05;;
79143;SDS011;68551;47.484;19.092;2023-05-10T12:10:42;3.65;;;2.08;;
79143;SDS011;68551;47.484;19.092;2023-05-10T12:13:49;3.70;;;2.38;;
79143;SDS011;68551;47.484;19.092;2023-05-10T12:16:52;2.95;;;1.67;;
79143;SDS011;68551;47.484;19.092;2023-05-10T12:19:58;2.63;;;1.83;;
79143;SDS011;68551;47.484;19.092;2023-05-10T12:23:17;2.38;;;1.90;;
79143;SDS011;68551;47.484;19.092;2023-05-10T12:26:25;2.30;;;1.75;;
79143;SDS011;68551;47.484;19.092;2023-05-10T12:29:31;3.92;;;2.13;;
79143;SDS011;68551;47.484;19.092;2023-05-10T12:35:48;2.28;;;1.88;;
79143;SDS011;68551;47.484;19.092;2023-05-10T12:39:04;2.15;;;1.83;;
79143;SDS011;68551;47.484;19.092;2023-05-10T12:42:06;3.22;;;1.80;;
79143;SDS011;68551;47.484;19.092;2023-05-10T12:45:13;2.03;;;1.65;;
79143;SDS011;68551;47.484;19.092;2023-05-10T12:48:19;3.05;;;2.55;;
79143;SDS011;68551;47.484;19.092;2023-05-10T12:51:22;3.05;;;2.00;;
79143;SDS011;68551;47.484;19.092;2023-05-10T12:54:27;3.97;;;1.80;;
79143;SDS011;68551;47.484;19.092;2023-05-10T12:57:29;2.38;;;1.80;;
79143;SDS011;68551;47.484;19.092;2023-05-10T13:00:32;1.60;;;1.30;;
79143;SDS011;68551;47.484;19.092;2023-05-10T13:03:34;4.32;;;1.60;;
79143;SDS011;68551;47.484;19.092;2023-05-10T13:06:42;2.28;;;1.60;;
79143;SDS011;68551;47.484;19.092;2023-05-10T13:09:44;2.08;;;1.77;;
79143;SDS011;68551;47.484;19.092;2023-05-10T13:12:47;3.53;;;1.70;;
79143;SDS011;68551;47.484;19.092;2023-05-10T13:15:49;2.35;;;1.75;;
79143;SDS011;68551;47.484;19.092;2023-05-10T13:18:54;2.03;;;1.40;;
79143;SDS011;68551;47.484;19.092;2023-05-10T13:22:01;2.05;;;1.50;;
79143;SDS011;68551;47.484;19.092;2023-05-10T13:25:03;1.95;;;1.48;;
79143;SDS011;68551;47.484;19.092;2023-05-10T13:28:09;1.70;;;1.35;;
79143;SDS011;68551;47.484;19.092;2023-05-10T13:31:11;2.58;;;1.73;;
79143;SDS011;68551;47.484;19.092;2023-05-10T13:34:20;3.42;;;1.60;;
79143;SDS011;68551;47.484;19.092;2023-05-10T13:37:23;2.17;;;1.73;;
79143;SDS011;68551;47.484;19.092;2023-05-10T13:40:25;2.33;;;1.50;;
79143;SDS011;68551;47.484;19.092;2023-05-10T13:43:28;3.28;;;1.80;;
79143;SDS011;68551;47.484;19.092;2023-05-10T13:46:31;2.03;;;1.48;;
79143;SDS011;68551;47.484;19.092;2023-05-10T13:49:38;2.50;;;1.65;;
79143;SDS011;68551;47.484;19.092;2023-05-10T13:52:42;2.35;;;1.67;;
79143;SDS011;68551;47.484;19.092;2023-05-10T13:55:47;1.98;;;1.50;;
79143;SDS011;68551;47.484;19.092;2023-05-10T13:58:49;3.20;;;1.70;;
79143;SDS011;68551;47.484;19.092;2023-05-10T14:01:52;2.28;;;1.48;;
79143;SDS011;68551;47.484;19.092;2023-05-10T14:04:56;2.15;;;1.30;;
79143;SDS011;68551;47.484;19.092;2023-05-10T14:07:58;2.70;;;1.33;;
79143;SDS011;68551;47.484;19.092;2023-05-10T14:11:05;3.75;;;1.80;;
79143;SDS011;68551;47.484;19.092;2023-05-10T14:14:10;2.38;;;1.50;;
79143;SDS011;68551;47.484;19.092;2023-05-10T14:17:14;1.80;;;1.40;;
79143;SDS011;68551;47.484;19.092;2023-05-10T14:20:19;2.20;;;1.58;;
79143;SDS011;68551;47.484;19.092;2023-05-10T14:23:22;1.80;;;1.30;;
79143;SDS011;68551;47.484;19.092;2023-05-10T14:26:27;2.45;;;1.63;;
79143;SDS011;68551;47.484;19.092;2023-05-10T14:29:32;2.40;;;1.58;;
79143;SDS011;68551;47.484;19.092;2023-05-10T14:32:34;2.67;;;1.25;;
79143;SDS011;68551;47.484;19.092;2023-05-10T14:35:39;1.90;;;1.13;;
79143;SDS011;68551;47.484;19.092;2023-05-10T14:38:46;2.88;;;1.73;;
79143;SDS011;68551;47.484;19.092;2023-05-10T14:41:51;2.35;;;1.50;;
79143;SDS011;68551;47.484;19.092;2023-05-10T14:44:56;2.55;;;1.73;;
79143;SDS011;68551;47.484;19.092;2023-05-10T14:47:58;2.20;;;1.52;;
79143;SDS011;68551;47.484;19.092;2023-05-10T14:51:08;2.08;;;1.60;;
79143;SDS011;68551;47.484;19.092;2023-05-10T14:54:11;2.90;;;1.70;;
79143;SDS011;68551;47.484;19.092;2023-05-10T14:57:16;2.38;;;1.35;;
79143;SDS011;68551;47.484;19.092;2023-05-10T15:00:19;1.80;;;1.48;;
79143;SDS011;68551;47.484;19.092;2023-05-10T15:03:25;2.10;;;1.42;;
79143;SDS011;68551;47.484;19.092;2023-05-10T15:09:39;1.25;;;1.15;;
79143;SDS011;68551;47.484;19.092;2023-05-10T15:12:44;2.33;;;1.40;;
79143;SDS011;68551;47.484;19.092;2023-05-10T15:15:49;2.50;;;1.45;;
79143;SDS011;68551;47.484;19.092;2023-05-10T15:18:57;1.85;;;1.42;;
79143;SDS011;68551;47.484;19.092;2023-05-10T15:21:59;1.45;;;1.33;;
79143;SDS011;68551;47.484;19.092;2023-05-10T15:25:02;2.60;;;1.60;;
79143;SDS011;68551;47.484;19.092;2023-05-10T15:28:09;2.88;;;2.40;;
79143;SDS011;68551;47.484;19.092;2023-05-10T15:31:15;2.00;;;1.50;;
79143;SDS011;68551;47.484;19.092;2023-05-10T15:37:23;2.22;;;1.60;;
79143;SDS011;68551;47.484;19.092;2023-05-10T15:40:26;2.55;;;1.63;;
79143;SDS011;68551;47.484;19.092;2023-05-10T15:43:28;1.80;;;1.45;;
79143;SDS011;68551;47.484;19.092;2023-05-10T15:46:30;1.35;;;1.13;;
79143;SDS011;68551;47.484;19.092;2023-05-10T15:49:35;2.00;;;1.40;;
79143;SDS011;68551;47.484;19.092;2023-05-10T15:52:37;3.45;;;1.50;;
79143;SDS011;68551;47.484;19.092;2023-05-10T15:55:40;2.42;;;1.40;;
79143;SDS011;68551;47.484;19.092;2023-05-10T15:58:45;3.92;;;1.50;;
79143;SDS011;68551;47.484;19.092;2023-05-10T16:01:50;2.05;;;1.83;;
79143;SDS011;68551;47.484;19.092;2023-05-10T16:04:52;1.88;;;1.33;;
79143;SDS011;68551;47.484;19.092;2023-05-10T16:07:55;2.30;;;1.48;;
79143;SDS011;68551;47.484;19.092;2023-05-10T16:11:00;1.52;;;1.35;;
79143;SDS011;68551;47.484;19.092;2023-05-10T16:14:04;1.70;;;1.27;;
79143;SDS011;68551;47.484;19.092;2023-05-10T16:17:08;1.45;;;1.30;;
79143;SDS011;68551;47.484;19.092;2023-05-10T16:20:13;2.55;;;2.13;;
79143;SDS011;68551;47.484;19.092;2023-05-10T16:23:18;1.77;;;1.50;;
79143;SDS011;68551;47.484;19.092;2023-05-10T16:26:20;2.53;;;1.60;;
79143;SDS011;68551;47.484;19.092;2023-05-10T16:29:25;1.58;;;1.40;;
79143;SDS011;68551;47.484;19.092;2023-05-10T16:32:29;4.03;;;1.98;;
79143;SDS011;68551;47.484;19.092;2023-05-10T16:35:32;1.88;;;1.50;;
79143;SDS011;68551;47.484;19.092;2023-05-10T16:38:36;2.00;;;1.73;;
79143;SDS011;68551;47.484;19.092;2023-05-10T16:41:39;3.35;;;1.88;;
79143;SDS011;68551;47.484;19.092;2023-05-10T16:47:49;2.85;;;1.77;;
79143;SDS011;68551;47.484;19.092;2023-05-10T16:50:51;3.03;;;1.83;;
79143;SDS011;68551;47.484;19.092;2023-05-10T16:53:53;2.70;;;2.10;;
79143;SDS011;68551;47.484;19.092;2023-05-10T16:56:56;2.33;;;1.73;;
79143;SDS011;68551;47.484;19.092;2023-05-10T16:59:59;2.80;;;1.77;;
79143;SDS011;68551;47.484;19.092;2023-05-10T17:03:03;1.95;;;1.75;;
79143;SDS011;68551;47.484;19.092;2023-05-10T17:06:08;2.78;;;2.13;;
79143;SDS011;68551;47.484;19.092;2023-05-10T17:09:14;3.42;;;1.90;;
79143;SDS011;68551;47.484;19.092;2023-05-10T17:12:21;2.20;;;1.73;;
79143;SDS011;68551;47.484;19.092;2023-05-10T17:15:29;3.00;;;1.77;;
79143;SDS011;68551;47.484;19.092;2023-05-10T17:18:36;2.47;;;1.70;;
79143;SDS011;68551;47.484;19.092;2023-05-10T17:21:40;3.47;;;1.80;;
79143;SDS011;68551;47.484;19.092;2023-05-10T17:24:43;3.65;;;1.95;;
79143;SDS011;68551;47.484;19.092;2023-05-10T17:27:48;2.17;;;1.77;;
79143;SDS011;68551;47.484;19.092;2023-05-10T17:30:56;2.92;;;1.77;;
79143;SDS011;68551;47.484;19.092;2023-05-10T17:33:59;2.70;;;1.67;;
79143;SDS011;68551;47.484;19.092;2023-05-10T17:37:07;7.85;;;3.42;;
79143;SDS011;68551;47.484;19.092;2023-05-10T17:40:15;3.08;;;2.50;;
79143;SDS011;68551;47.484;19.092;2023-05-10T17:43:19;3.50;;;2.17;;
79143;SDS011;68551;47.484;19.092;2023-05-10T17:46:22;2.90;;;2.03;;
79143;SDS011;68551;47.484;19.092;2023-05-10T17:49:27;2.50;;;1.88;;
79143;SDS011;68551;47.484;19.092;2023-05-10T17:52:29;3.15;;;1.85;;
79143;SDS011;68551;47.484;19.092;2023-05-10T17:55:34;3.35;;;2.28;;
79143;SDS011;68551;47.484;19.092;2023-05-10T18:01:45;2.70;;;1.90;;
79143;SDS011;68551;47.484;19.092;2023-05-10T18:04:47;3.10;;;1.98;;
79143;SDS011;68551;47.484;19.092;2023-05-10T18:07:52;3.00;;;2.00;;
79143;SDS011;68551;47.484;19.092;2023-05-10T18:10:57;3.85;;;2.33;;
79143;SDS011;68551;47.484;19.092;2023-05-10T18:14:00;3.38;;;2.08;;
79143;SDS011;68551;47.484;19.092;2023-05-10T18:17:05;2.78;;;2.30;;
79143;SDS011;68551;47.484;19.092;2023-05-10T18:20:09;2.30;;;1.80;;
79143;SDS011;68551;47.484;19.092;2023-05-10T18:23:11;2.30;;;1.90;;
79143;SDS011;68551;47.484;19.092;2023-05-10T18:26:14;5.20;;;2.20;;
79143;SDS011;68551;47.484;19.092;2023-05-10T18:29:21;2.42;;;1.92;;
79143;SDS011;68551;47.484;19.092;2023-05-10T18:32:27;2.42;;;1.70;;
79143;SDS011;68551;47.484;19.092;2023-05-10T18:35:32;4.35;;;2.72;;
79143;SDS011;68551;47.484;19.092;2023-05-10T18:38:37;3.95;;;2.25;;
79143;SDS011;68551;47.484;19.092;2023-05-10T18:41:42;5.15;;;2.10;;
79143;SDS011;68551;47.484;19.092;2023-05-10T18:44:48;2.50;;;1.80;;
79143;SDS011;68551;47.484;19.092;2023-05-10T18:47:50;3.47;;;2.38;;
79143;SDS011;68551;47.484;19.092;2023-05-10T18:50:54;3.15;;;2.05;;
79143;SDS011;68551;47.484;19.092;2023-05-10T18:53:59;3.75;;;1.92;;
79143;SDS011;68551;47.484;19.092;2023-05-10T18:57:06;3.85;;;2.10;;
79143;SDS011;68551;47.484;19.092;2023-05-10T19:00:10;4.63;;;1.73;;
79143;SDS011;68551;47.484;19.092;2023-05-10T19:03:17;2.88;;;1.80;;